sensor_id;sensor_type;location;lat;lon;timestamp;temperature;humidity
30037;DHT22;36325;51.512;-0.382;2023-05-07T00:00:38;13.50;99.90
30037;DHT22;36325;51.512;-0.382;2023-05-07T00:03:05;13.50;99.90
30037;DHT22;36325;51.512;-0.382;2023-05-07T00:05:33;13.50;99.90
30037;DHT22;36325;51.512;-0.382;2023-05-07T00:08:01;13.50;99.90
30037;DHT22;36325;51.512;-0.382;2023-05-07T00:10:28;13.40;99.90
30037;DHT22;36325;51.512;-0.382;2023-05-07T00:12:56;13.30;99.90
30037;DHT22;36325;51.512;-0.382;2023-05-07T00:15:23;13.30;99.90
30037;DHT22;36325;51.512;-0.382;2023-05-07T00:17:50;13.20;99.90
30037;DHT22;36325;51.512;-0.382;2023-05-07T00:20:18;13.20;99.90
30037;DHT22;36325;51.512;-0.382;2023-05-07T00:22:45;13.10;99.90
30037;DHT22;36325;51.512;-0.382;2023-05-07T00:25:12;13.10;99.90
30037;DHT22;36325;51.512;-0.382;2023-05-07T00:27:40;13.00;99.90
30037;DHT22;36325;51.512;-0.382;2023-05-07T00:30:07;13.00;99.90
30037;DHT22;36325;51.512;-0.382;2023-05-07T00:32:35;12.90;99.90
30037;DHT22;36325;51.512;-0.382;2023-05-07T00:35:04;12.90;99.90
30037;DHT22;36325;51.512;-0.382;2023-05-07T00:37:32;12.90;99.90
30037;DHT22;36325;51.512;-0.382;2023-05-07T00:39:59;12.90;99.90
30037;DHT22;36325;51.512;-0.382;2023-05-07T00:42:26;12.90;99.90
30037;DHT22;36325;51.512;-0.382;2023-05-07T00:44:55;13.00;99.90
30037;DHT22;36325;51.512;-0.382;2023-05-07T00:47:22;13.00;99.90
30037;DHT22;36325;51.512;-0.382;2023-05-07T00:49:49;13.10;99.90
30037;DHT22;36325;51.512;-0.382;2023-05-07T00:52:17;13.10;99.90
30037;DHT22;36325;51.512;-0.382;2023-05-07T00:54:46;13.10;99.90
30037;DHT22;36325;51.512;-0.382;2023-05-07T00:57:14;13.20;99.90
30037;DHT22;36325;51.512;-0.382;2023-05-07T00:59:42;13.20;99.90
30037;DHT22;36325;51.512;-0.382;2023-05-07T01:02:10;13.20;99.90
30037;DHT22;36325;51.512;-0.382;2023-05-07T01:07:05;13.30;99.90
30037;DHT22;36325;51.512;-0.382;2023-05-07T01:09:32;13.30;99.90
30037;DHT22;36325;51.512;-0.382;2023-05-07T01:12:03;13.30;99.90
30037;DHT22;36325;51.512;-0.382;2023-05-07T01:14:31;13.30;99.90
30037;DHT22;36325;51.512;-0.382;2023-05-07T01:16:59;13.20;99.90
30037;DHT22;36325;51.512;-0.382;2023-05-07T01:19:29;13.20;99.90
30037;DHT22;36325;51.512;-0.382;2023-05-07T01:22:08;13.20;99.90
30037;DHT22;36325;51.512;-0.382;2023-05-07T01:24:45;13.20;99.90
30037;DHT22;36325;51.512;-0.382;2023-05-07T01:27:14;13.20;99.90
30037;DHT22;36325;51.512;-0.382;2023-05-07T01:29:41;13.20;99.90
30037;DHT22;36325;51.512;-0.382;2023-05-07T01:32:09;13.20;99.90
30037;DHT22;36325;51.512;-0.382;2023-05-07T01:34:37;13.20;99.90
30037;DHT22;36325;51.512;-0.382;2023-05-07T01:39:32;13.20;99.90
30037;DHT22;36325;51.512;-0.382;2023-05-07T01:42:00;13.20;99.90
30037;DHT22;36325;51.512;-0.382;2023-05-07T01:44:28;13.20;99.90
30037;DHT22;36325;51.512;-0.382;2023-05-07T01:46:57;13.10;99.90
30037;DHT22;36325;51.512;-0.382;2023-05-07T01:49:25;13.10;99.90
30037;DHT22;36325;51.512;-0.382;2023-05-07T01:51:53;13.10;99.90
30037;DHT22;36325;51.512;-0.382;2023-05-07T01:54:25;13.10;99.90
30037;DHT22;36325;51.512;-0.382;2023-05-07T01:56:56;13.10;99.90
30037;DHT22;36325;51.512;-0.382;2023-05-07T01:59:24;13.10;99.90
30037;DHT22;36325;51.512;-0.382;2023-05-07T02:01:52;13.00;99.90
30037;DHT22;36325;51.512;-0.382;2023-05-07T02:04:19;13.00;99.90
30037;DHT22;36325;51.512;-0.382;2023-05-07T02:06:46;13.00;99.90
30037;DHT22;36325;51.512;-0.382;2023-05-07T02:09:15;13.10;99.90
30037;DHT22;36325;51.512;-0.382;2023-05-07T02:11:47;13.10;99.90
30037;DHT22;36325;51.512;-0.382;2023-05-07T02:14:16;13.10;99.90
30037;DHT22;36325;51.512;-0.382;2023-05-07T02:16:43;13.10;99.90
30037;DHT22;36325;51.512;-0.382;2023-05-07T02:19:12;13.10;99.90
30037;DHT22;36325;51.512;-0.382;2023-05-07T02:21:41;13.10;99.90
30037;DHT22;36325;51.512;-0.382;2023-05-07T02:24:15;12.90;99.90
30037;DHT22;36325;51.512;-0.382;2023-05-07T02:26:48;13.10;99.90
30037;DHT22;36325;51.512;-0.382;2023-05-07T02:29:15;13.10;99.90
30037;DHT22;36325;51.512;-0.382;2023-05-07T02:31:43;13.10;99.90
30037;DHT22;36325;51.512;-0.382;2023-05-07T02:34:11;13.10;99.90
30037;DHT22;36325;51.512;-0.382;2023-05-07T02:36:38;13.20;99.90
30037;DHT22;36325;51.512;-0.382;2023-05-07T02:39:10;13.20;99.90
30037;DHT22;36325;51.512;-0.382;2023-05-07T02:41:38;13.20;99.90
30037;DHT22;36325;51.512;-0.382;2023-05-07T02:44:05;13.20;99.90
30037;DHT22;36325;51.512;-0.382;2023-05-07T02:46:33;13.20;99.90
30037;DHT22;36325;51.512;-0.382;2023-05-07T02:49:05;13.20;99.90
30037;DHT22;36325;51.512;-0.382;2023-05-07T02:51:33;13.20;99.90
30037;DHT22;36325;51.512;-0.382;2023-05-07T02:58:59;13.20;99.90
30037;DHT22;36325;51.512;-0.382;2023-05-07T03:01:31;13.30;99.90
30037;DHT22;36325;51.512;-0.382;2023-05-07T03:04:02;13.30;99.90
30037;DHT22;36325;51.512;-0.382;2023-05-07T03:06:30;13.20;99.90
30037;DHT22;36325;51.512;-0.382;2023-05-07T03:08:57;13.30;99.90
30037;DHT22;36325;51.512;-0.382;2023-05-07T03:11:25;13.20;99.90
30037;DHT22;36325;51.512;-0.382;2023-05-07T03:13:52;13.30;99.90
30037;DHT22;36325;51.512;-0.382;2023-05-07T03:16:20;13.20;99.90
30037;DHT22;36325;51.512;-0.382;2023-05-07T03:18:48;13.30;99.90
30037;DHT22;36325;51.512;-0.382;2023-05-07T03:21:15;13.30;99.90
30037;DHT22;36325;51.512;-0.382;2023-05-07T03:23:42;13.30;99.90
30037;DHT22;36325;51.512;-0.382;2023-05-07T03:26:09;13.30;99.90
30037;DHT22;36325;51.512;-0.382;2023-05-07T03:28:37;13.30;99.90
30037;DHT22;36325;51.512;-0.382;2023-05-07T03:31:08;13.30;99.90
30037;DHT22;36325;51.512;-0.382;2023-05-07T03:33:49;13.30;99.90
30037;DHT22;36325;51.512;-0.382;2023-05-07T03:36:16;13.30;99.90
30037;DHT22;36325;51.512;-0.382;2023-05-07T03:38:44;13.30;99.90
30037;DHT22;36325;51.512;-0.382;2023-05-07T03:41:11;13.30;99.90
30037;DHT22;36325;51.512;-0.382;2023-05-07T03:43:39;13.30;99.90
30037;DHT22;36325;51.512;-0.382;2023-05-07T03:46:09;13.30;99.90
30037;DHT22;36325;51.512;-0.382;2023-05-07T03:48:36;13.30;99.90
30037;DHT22;36325;51.512;-0.382;2023-05-07T03:51:04;13.30;99.90
30037;DHT22;36325;51.512;-0.382;2023-05-07T03:53:33;13.40;99.90
30037;DHT22;36325;51.512;-0.382;2023-05-07T03:56:00;13.40;99.90
30037;DHT22;36325;51.512;-0.382;2023-05-07T03:58:30;13.30;99.90
30037;DHT22;36325;51.512;-0.382;2023-05-07T04:01:03;13.30;99.90
30037;DHT22;36325;51.512;-0.382;2023-05-07T04:03:30;13.30;99.90
30037;DHT22;36325;51.512;-0.382;2023-05-07T04:08:27;13.40;99.90
30037;DHT22;36325;51.512;-0.382;2023-05-07T04:10:55;13.40;99.90
30037;DHT22;36325;51.512;-0.382;2023-05-07T04:13:25;13.30;99.90
30037;DHT22;36325;51.512;-0.382;2023-05-07T04:15:55;13.30;99.90
30037;DHT22;36325;51.512;-0.382;2023-05-07T04:18:23;13.30;99.90
30037;DHT22;36325;51.512;-0.382;2023-05-07T04:20:51;13.30;99.90
30037;DHT22;36325;51.512;-0.382;2023-05-07T04:23:18;13.30;99.90
30037;DHT22;36325;51.512;-0.382;2023-05-07T04:25:45;13.30;99.90
30037;DHT22;36325;51.512;-0.382;2023-05-07T04:28:20;13.30;99.90
30037;DHT22;36325;51.512;-0.382;2023-05-07T04:35:45;13.40;99.90
30037;DHT22;36325;51.512;-0.382;2023-05-07T04:38:13;13.30;99.90
30037;DHT22;36325;51.512;-0.382;2023-05-07T04:40:41;13.30;99.90
30037;DHT22;36325;51.512;-0.382;2023-05-07T04:43:12;13.40;99.90
30037;DHT22;36325;51.512;-0.382;2023-05-07T04:45:45;13.40;99.90
30037;DHT22;36325;51.512;-0.382;2023-05-07T04:48:12;12.20;99.90
30037;DHT22;36325;51.512;-0.382;2023-05-07T04:50:42;13.40;99.90
30037;DHT22;36325;51.512;-0.382;2023-05-07T04:53:10;13.40;99.90
30037;DHT22;36325;51.512;-0.382;2023-05-07T04:55:37;13.40;99.90
30037;DHT22;36325;51.512;-0.382;2023-05-07T04:58:05;13.40;99.90
30037;DHT22;36325;51.512;-0.382;2023-05-07T05:00:34;13.40;99.90
30037;DHT22;36325;51.512;-0.382;2023-05-07T05:05:32;13.40;99.90
30037;DHT22;36325;51.512;-0.382;2023-05-07T05:08:00;13.40;99.90
30037;DHT22;36325;51.512;-0.382;2023-05-07T05:10:27;13.50;99.90
30037;DHT22;36325;51.512;-0.382;2023-05-07T05:12:55;13.50;99.90
30037;DHT22;36325;51.512;-0.382;2023-05-07T05:15:23;13.50;99.90
30037;DHT22;36325;51.512;-0.382;2023-05-07T05:17:51;13.50;99.90
30037;DHT22;36325;51.512;-0.382;2023-05-07T05:20:19;13.50;99.90
30037;DHT22;36325;51.512;-0.382;2023-05-07T05:22:47;13.50;99.90
30037;DHT22;36325;51.512;-0.382;2023-05-07T05:25:14;13.50;99.90
30037;DHT22;36325;51.512;-0.382;2023-05-07T05:27:42;13.60;99.90
30037;DHT22;36325;51.512;-0.382;2023-05-07T05:30:10;13.60;99.90
30037;DHT22;36325;51.512;-0.382;2023-05-07T05:32:38;13.50;99.90
30037;DHT22;36325;51.512;-0.382;2023-05-07T05:35:06;13.60;99.90
30037;DHT22;36325;51.512;-0.382;2023-05-07T05:37:33;13.60;99.90
30037;DHT22;36325;51.512;-0.382;2023-05-07T05:40:02;14.60;99.90
30037;DHT22;36325;51.512;-0.382;2023-05-07T05:42:30;13.70;99.90
30037;DHT22;36325;51.512;-0.382;2023-05-07T05:44:57;13.70;99.90
30037;DHT22;36325;51.512;-0.382;2023-05-07T05:47:26;13.70;99.90
30037;DHT22;36325;51.512;-0.382;2023-05-07T05:49:55;13.70;99.90
30037;DHT22;36325;51.512;-0.382;2023-05-07T05:52:22;13.70;99.90
30037;DHT22;36325;51.512;-0.382;2023-05-07T05:54:51;13.70;99.90
30037;DHT22;36325;51.512;-0.382;2023-05-07T05:57:19;13.80;99.90
30037;DHT22;36325;51.512;-0.382;2023-05-07T05:59:46;13.80;99.90
30037;DHT22;36325;51.512;-0.382;2023-05-07T06:02:14;13.80;99.90
30037;DHT22;36325;51.512;-0.382;2023-05-07T06:04:41;13.80;99.90
30037;DHT22;36325;51.512;-0.382;2023-05-07T06:07:12;13.80;99.90
30037;DHT22;36325;51.512;-0.382;2023-05-07T06:09:40;13.90;99.90
30037;DHT22;36325;51.512;-0.382;2023-05-07T06:12:08;13.90;99.90
30037;DHT22;36325;51.512;-0.382;2023-05-07T06:14:35;14.00;99.90
30037;DHT22;36325;51.512;-0.382;2023-05-07T06:17:03;14.10;99.90
30037;DHT22;36325;51.512;-0.382;2023-05-07T06:19:30;14.10;99.90
30037;DHT22;36325;51.512;-0.382;2023-05-07T06:21:59;14.10;99.90
30037;DHT22;36325;51.512;-0.382;2023-05-07T06:24:30;14.20;99.90
30037;DHT22;36325;51.512;-0.382;2023-05-07T06:26:57;14.20;99.90
30037;DHT22;36325;51.512;-0.382;2023-05-07T06:29:28;14.20;99.90
30037;DHT22;36325;51.512;-0.382;2023-05-07T06:32:12;14.30;99.90
30037;DHT22;36325;51.512;-0.382;2023-05-07T06:34:42;14.40;99.90
30037;DHT22;36325;51.512;-0.382;2023-05-07T06:37:10;14.40;99.90
30037;DHT22;36325;51.512;-0.382;2023-05-07T06:39:49;14.40;99.90
30037;DHT22;36325;51.512;-0.382;2023-05-07T06:42:17;14.50;99.90
30037;DHT22;36325;51.512;-0.382;2023-05-07T06:44:46;14.40;99.90
30037;DHT22;36325;51.512;-0.382;2023-05-07T06:47:16;14.50;99.90
30037;DHT22;36325;51.512;-0.382;2023-05-07T06:49:47;14.50;99.90
30037;DHT22;36325;51.512;-0.382;2023-05-07T06:52:17;14.50;99.90
30037;DHT22;36325;51.512;-0.382;2023-05-07T06:54:46;14.50;99.90
30037;DHT22;36325;51.512;-0.382;2023-05-07T06:57:15;14.60;99.90
30037;DHT22;36325;51.512;-0.382;2023-05-07T06:59:43;14.70;99.90
30037;DHT22;36325;51.512;-0.382;2023-05-07T07:02:10;14.60;99.90
30037;DHT22;36325;51.512;-0.382;2023-05-07T07:04:38;14.70;99.90
30037;DHT22;36325;51.512;-0.382;2023-05-07T07:07:08;14.70;99.90
30037;DHT22;36325;51.512;-0.382;2023-05-07T07:09:40;14.70;99.90
30037;DHT22;36325;51.512;-0.382;2023-05-07T07:12:09;14.80;99.90
30037;DHT22;36325;51.512;-0.382;2023-05-07T07:14:38;14.80;99.90
30037;DHT22;36325;51.512;-0.382;2023-05-07T07:17:06;14.90;99.90
30037;DHT22;36325;51.512;-0.382;2023-05-07T07:19:34;14.90;99.90
30037;DHT22;36325;51.512;-0.382;2023-05-07T07:22:03;14.90;99.90
30037;DHT22;36325;51.512;-0.382;2023-05-07T07:24:31;14.80;99.90
30037;DHT22;36325;51.512;-0.382;2023-05-07T07:27:02;15.10;99.90
30037;DHT22;36325;51.512;-0.382;2023-05-07T07:29:30;15.30;99.90
30037;DHT22;36325;51.512;-0.382;2023-05-07T07:34:25;13.40;99.90
30037;DHT22;36325;51.512;-0.382;2023-05-07T07:36:53;15.40;99.90
30037;DHT22;36325;51.512;-0.382;2023-05-07T07:44:20;15.70;99.90
30037;DHT22;36325;51.512;-0.382;2023-05-07T07:46:51;15.70;99.90
30037;DHT22;36325;51.512;-0.382;2023-05-07T07:49:20;15.80;99.90
30037;DHT22;36325;51.512;-0.382;2023-05-07T07:51:47;15.80;99.90
30037;DHT22;36325;51.512;-0.382;2023-05-07T07:54:16;15.90;99.90
30037;DHT22;36325;51.512;-0.382;2023-05-07T07:56:44;16.00;99.90
30037;DHT22;36325;51.512;-0.382;2023-05-07T07:59:12;16.20;99.90
30037;DHT22;36325;51.512;-0.382;2023-05-07T08:01:45;16.20;99.90
30037;DHT22;36325;51.512;-0.382;2023-05-07T08:04:15;16.20;99.90
30037;DHT22;36325;51.512;-0.382;2023-05-07T08:06:44;16.30;99.90
30037;DHT22;36325;51.512;-0.382;2023-05-07T08:09:11;16.30;99.90
30037;DHT22;36325;51.512;-0.382;2023-05-07T08:11:40;16.40;99.90
30037;DHT22;36325;51.512;-0.382;2023-05-07T08:14:08;16.50;99.90
30037;DHT22;36325;51.512;-0.382;2023-05-07T08:16:35;16.60;99.90
30037;DHT22;36325;51.512;-0.382;2023-05-07T08:19:03;16.60;99.90
30037;DHT22;36325;51.512;-0.382;2023-05-07T08:21:30;16.60;99.90
30037;DHT22;36325;51.512;-0.382;2023-05-07T08:24:00;16.60;99.90
30037;DHT22;36325;51.512;-0.382;2023-05-07T08:26:28;16.60;99.90
30037;DHT22;36325;51.512;-0.382;2023-05-07T08:28:56;16.60;99.90
30037;DHT22;36325;51.512;-0.382;2023-05-07T08:31:23;16.60;99.90
30037;DHT22;36325;51.512;-0.382;2023-05-07T08:33:51;16.70;99.90
30037;DHT22;36325;51.512;-0.382;2023-05-07T08:36:18;16.70;99.90
30037;DHT22;36325;51.512;-0.382;2023-05-07T08:38:46;17.00;99.90
30037;DHT22;36325;51.512;-0.382;2023-05-07T08:41:14;17.00;99.90
30037;DHT22;36325;51.512;-0.382;2023-05-07T08:43:48;17.00;99.90
30037;DHT22;36325;51.512;-0.382;2023-05-07T08:46:21;17.10;99.90
30037;DHT22;36325;51.512;-0.382;2023-05-07T08:48:53;16.40;99.90
30037;DHT22;36325;51.512;-0.382;2023-05-07T08:51:21;17.20;99.90
30037;DHT22;36325;51.512;-0.382;2023-05-07T08:53:49;17.10;99.90
30037;DHT22;36325;51.512;-0.382;2023-05-07T08:56:23;16.90;99.90
30037;DHT22;36325;51.512;-0.382;2023-05-07T08:58:54;16.60;99.90
30037;DHT22;36325;51.512;-0.382;2023-05-07T09:01:27;16.70;99.90
30037;DHT22;36325;51.512;-0.382;2023-05-07T09:03:55;16.70;99.90
30037;DHT22;36325;51.512;-0.382;2023-05-07T09:06:25;16.70;99.90
30037;DHT22;36325;51.512;-0.382;2023-05-07T09:08:54;16.70;99.90
30037;DHT22;36325;51.512;-0.382;2023-05-07T09:11:25;16.70;99.90
30037;DHT22;36325;51.512;-0.382;2023-05-07T09:13:55;16.90;99.90
30037;DHT22;36325;51.512;-0.382;2023-05-07T09:16:25;17.00;99.90
30037;DHT22;36325;51.512;-0.382;2023-05-07T09:18:54;17.10;99.90
30037;DHT22;36325;51.512;-0.382;2023-05-07T09:21:22;17.20;99.90
30037;DHT22;36325;51.512;-0.382;2023-05-07T09:23:54;17.30;99.90
30037;DHT22;36325;51.512;-0.382;2023-05-07T09:26:26;17.30;99.90
30037;DHT22;36325;51.512;-0.382;2023-05-07T09:28:55;17.30;99.90
30037;DHT22;36325;51.512;-0.382;2023-05-07T09:31:22;19.10;99.90
30037;DHT22;36325;51.512;-0.382;2023-05-07T09:33:54;17.30;99.90
30037;DHT22;36325;51.512;-0.382;2023-05-07T09:36:27;17.30;99.90
30037;DHT22;36325;51.512;-0.382;2023-05-07T09:38:54;17.30;99.90
30037;DHT22;36325;51.512;-0.382;2023-05-07T09:41:23;17.20;99.90
30037;DHT22;36325;51.512;-0.382;2023-05-07T09:44:14;17.30;99.90
30037;DHT22;36325;51.512;-0.382;2023-05-07T09:46:49;17.40;99.90
30037;DHT22;36325;51.512;-0.382;2023-05-07T09:49:23;17.40;99.90
30037;DHT22;36325;51.512;-0.382;2023-05-07T09:52:01;17.60;99.90
30037;DHT22;36325;51.512;-0.382;2023-05-07T09:54:32;17.70;99.90
30037;DHT22;36325;51.512;-0.382;2023-05-07T09:57:02;17.80;99.90
30037;DHT22;36325;51.512;-0.382;2023-05-07T09:59:31;17.90;99.90
30037;DHT22;36325;51.512;-0.382;2023-05-07T10:02:03;18.10;99.90
30037;DHT22;36325;51.512;-0.382;2023-05-07T10:04:35;18.40;99.90
30037;DHT22;36325;51.512;-0.382;2023-05-07T10:07:04;18.60;99.90
30037;DHT22;36325;51.512;-0.382;2023-05-07T10:09:35;18.70;99.90
30037;DHT22;36325;51.512;-0.382;2023-05-07T10:12:10;18.70;99.90
30037;DHT22;36325;51.512;-0.382;2023-05-07T10:14:37;18.80;99.90
30037;DHT22;36325;51.512;-0.382;2023-05-07T10:17:05;18.90;99.90
30037;DHT22;36325;51.512;-0.382;2023-05-07T10:19:34;19.10;99.90
30037;DHT22;36325;51.512;-0.382;2023-05-07T10:22:05;19.30;99.90
30037;DHT22;36325;51.512;-0.382;2023-05-07T10:24:38;19.60;99.90
30037;DHT22;36325;51.512;-0.382;2023-05-07T10:27:12;19.80;99.90
30037;DHT22;36325;51.512;-0.382;2023-05-07T10:32:39;19.90;99.90
30037;DHT22;36325;51.512;-0.382;2023-05-07T10:35:18;20.10;99.90
30037;DHT22;36325;51.512;-0.382;2023-05-07T10:37:48;20.20;99.90
30037;DHT22;36325;51.512;-0.382;2023-05-07T10:40:16;20.50;99.90
30037;DHT22;36325;51.512;-0.382;2023-05-07T10:43:00;20.60;99.90
30037;DHT22;36325;51.512;-0.382;2023-05-07T10:45:33;20.80;99.90
30037;DHT22;36325;51.512;-0.382;2023-05-07T10:48:12;20.90;99.90
30037;DHT22;36325;51.512;-0.382;2023-05-07T10:51:21;20.90;99.90
30037;DHT22;36325;51.512;-0.382;2023-05-07T10:56:46;20.70;99.90
30037;DHT22;36325;51.512;-0.382;2023-05-07T11:01:57;20.50;99.90
30037;DHT22;36325;51.512;-0.382;2023-05-07T11:04:35;20.30;99.90
30037;DHT22;36325;51.512;-0.382;2023-05-07T11:07:30;20.10;99.90
30037;DHT22;36325;51.512;-0.382;2023-05-07T11:10:05;20.00;99.90
30037;DHT22;36325;51.512;-0.382;2023-05-07T11:15:44;19.90;99.90
30037;DHT22;36325;51.512;-0.382;2023-05-07T11:18:50;19.80;99.90
30037;DHT22;36325;51.512;-0.382;2023-05-07T11:21:42;19.80;99.90
30037;DHT22;36325;51.512;-0.382;2023-05-07T11:24:40;19.70;99.90
30037;DHT22;36325;51.512;-0.382;2023-05-07T11:27:11;19.60;99.90
30037;DHT22;36325;51.512;-0.382;2023-05-07T11:29:39;19.40;99.90
30037;DHT22;36325;51.512;-0.382;2023-05-07T11:32:10;19.30;99.90
30037;DHT22;36325;51.512;-0.382;2023-05-07T11:34:58;19.30;99.90
30037;DHT22;36325;51.512;-0.382;2023-05-07T11:37:27;19.20;99.90
30037;DHT22;36325;51.512;-0.382;2023-05-07T11:42:33;19.30;99.90
30037;DHT22;36325;51.512;-0.382;2023-05-07T11:45:01;18.80;99.90
30037;DHT22;36325;51.512;-0.382;2023-05-07T11:47:32;19.40;99.90
30037;DHT22;36325;51.512;-0.382;2023-05-07T11:50:07;19.50;99.90
30037;DHT22;36325;51.512;-0.382;2023-05-07T11:52:35;19.70;99.90
30037;DHT22;36325;51.512;-0.382;2023-05-07T11:55:03;19.80;99.90
30037;DHT22;36325;51.512;-0.382;2023-05-07T11:57:33;19.90;99.90
30037;DHT22;36325;51.512;-0.382;2023-05-07T12:00:02;20.00;99.90
30037;DHT22;36325;51.512;-0.382;2023-05-07T12:02:40;20.20;99.90
30037;DHT22;36325;51.512;-0.382;2023-05-07T12:05:08;20.40;99.90
30037;DHT22;36325;51.512;-0.382;2023-05-07T12:07:36;20.60;99.90
30037;DHT22;36325;51.512;-0.382;2023-05-07T12:10:05;20.70;99.90
30037;DHT22;36325;51.512;-0.382;2023-05-07T12:12:45;20.90;99.90
30037;DHT22;36325;51.512;-0.382;2023-05-07T12:15:16;21.20;99.90
30037;DHT22;36325;51.512;-0.382;2023-05-07T12:17:44;21.60;99.90
30037;DHT22;36325;51.512;-0.382;2023-05-07T12:20:12;22.30;99.90
30037;DHT22;36325;51.512;-0.382;2023-05-07T12:22:41;23.00;99.90
30037;DHT22;36325;51.512;-0.382;2023-05-07T12:25:08;23.70;99.90
30037;DHT22;36325;51.512;-0.382;2023-05-07T12:27:40;23.70;99.90
30037;DHT22;36325;51.512;-0.382;2023-05-07T12:30:12;25.20;99.90
30037;DHT22;36325;51.512;-0.382;2023-05-07T12:32:40;23.50;99.90
30037;DHT22;36325;51.512;-0.382;2023-05-07T12:35:08;23.20;99.90
30037;DHT22;36325;51.512;-0.382;2023-05-07T12:37:37;23.10;99.90
30037;DHT22;36325;51.512;-0.382;2023-05-07T12:40:10;22.80;99.90
30037;DHT22;36325;51.512;-0.382;2023-05-07T12:42:39;22.50;99.90
30037;DHT22;36325;51.512;-0.382;2023-05-07T12:45:15;22.60;99.90
30037;DHT22;36325;51.512;-0.382;2023-05-07T12:47:44;22.60;99.90
30037;DHT22;36325;51.512;-0.382;2023-05-07T12:50:16;22.60;99.90
30037;DHT22;36325;51.512;-0.382;2023-05-07T12:52:52;22.70;99.90
30037;DHT22;36325;51.512;-0.382;2023-05-07T12:55:20;22.80;99.90
30037;DHT22;36325;51.512;-0.382;2023-05-07T12:57:48;23.00;99.90
30037;DHT22;36325;51.512;-0.382;2023-05-07T13:00:18;23.00;99.90
30037;DHT22;36325;51.512;-0.382;2023-05-07T13:02:58;22.90;99.90
30037;DHT22;36325;51.512;-0.382;2023-05-07T13:05:26;22.80;99.90
30037;DHT22;36325;51.512;-0.382;2023-05-07T13:07:55;22.70;99.90
30037;DHT22;36325;51.512;-0.382;2023-05-07T13:10:23;22.80;99.90
30037;DHT22;36325;51.512;-0.382;2023-05-07T13:12:51;23.00;99.90
30037;DHT22;36325;51.512;-0.382;2023-05-07T13:15:19;23.10;99.90
30037;DHT22;36325;51.512;-0.382;2023-05-07T13:17:46;23.10;99.90
30037;DHT22;36325;51.512;-0.382;2023-05-07T13:20:14;23.10;99.90
30037;DHT22;36325;51.512;-0.382;2023-05-07T13:22:42;22.90;99.90
30037;DHT22;36325;51.512;-0.382;2023-05-07T13:25:11;22.90;99.90
30037;DHT22;36325;51.512;-0.382;2023-05-07T13:27:38;23.20;99.90
30037;DHT22;36325;51.512;-0.382;2023-05-07T13:30:06;23.30;99.90
30037;DHT22;36325;51.512;-0.382;2023-05-07T13:32:35;23.40;99.90
30037;DHT22;36325;51.512;-0.382;2023-05-07T13:35:03;24.80;99.90
30037;DHT22;36325;51.512;-0.382;2023-05-07T13:37:30;24.90;99.90
30037;DHT22;36325;51.512;-0.382;2023-05-07T13:39:58;24.70;99.90
30037;DHT22;36325;51.512;-0.382;2023-05-07T13:42:26;24.70;99.90
30037;DHT22;36325;51.512;-0.382;2023-05-07T13:44:58;25.80;99.90
30037;DHT22;36325;51.512;-0.382;2023-05-07T13:47:34;27.80;99.90
30037;DHT22;36325;51.512;-0.382;2023-05-07T13:50:08;28.20;99.90
30037;DHT22;36325;51.512;-0.382;2023-05-07T13:52:37;28.00;99.90
30037;DHT22;36325;51.512;-0.382;2023-05-07T13:55:17;29.40;99.90
30037;DHT22;36325;51.512;-0.382;2023-05-07T13:57:45;30.50;99.90
30037;DHT22;36325;51.512;-0.382;2023-05-07T14:00:14;31.60;99.90
30037;DHT22;36325;51.512;-0.382;2023-05-07T14:02:43;31.00;99.90
30037;DHT22;36325;51.512;-0.382;2023-05-07T14:05:11;29.90;99.90
30037;DHT22;36325;51.512;-0.382;2023-05-07T14:07:38;30.10;99.90
30037;DHT22;36325;51.512;-0.382;2023-05-07T14:10:06;30.40;99.90
30037;DHT22;36325;51.512;-0.382;2023-05-07T14:12:33;29.50;99.90
30037;DHT22;36325;51.512;-0.382;2023-05-07T14:15:01;29.50;99.90
30037;DHT22;36325;51.512;-0.382;2023-05-07T14:17:28;29.00;99.90
30037;DHT22;36325;51.512;-0.382;2023-05-07T14:19:55;28.30;99.90
30037;DHT22;36325;51.512;-0.382;2023-05-07T14:22:23;27.50;99.90
30037;DHT22;36325;51.512;-0.382;2023-05-07T14:24:50;26.90;99.90
30037;DHT22;36325;51.512;-0.382;2023-05-07T14:27:31;27.20;99.90
30037;DHT22;36325;51.512;-0.382;2023-05-07T14:29:58;27.30;99.90
30037;DHT22;36325;51.512;-0.382;2023-05-07T14:32:25;29.10;99.90
30037;DHT22;36325;51.512;-0.382;2023-05-07T14:34:53;30.50;99.90
30037;DHT22;36325;51.512;-0.382;2023-05-07T14:37:20;31.80;99.90
30037;DHT22;36325;51.512;-0.382;2023-05-07T14:39:48;32.60;99.90
30037;DHT22;36325;51.512;-0.382;2023-05-07T14:42:17;32.90;99.90
30037;DHT22;36325;51.512;-0.382;2023-05-07T14:44:46;32.80;99.90
30037;DHT22;36325;51.512;-0.382;2023-05-07T14:47:15;33.20;99.90
30037;DHT22;36325;51.512;-0.382;2023-05-07T14:49:44;33.80;99.90
30037;DHT22;36325;51.512;-0.382;2023-05-07T14:52:11;33.10;99.90
30037;DHT22;36325;51.512;-0.382;2023-05-07T14:54:39;31.80;99.90
30037;DHT22;36325;51.512;-0.382;2023-05-07T14:57:08;32.10;99.90
30037;DHT22;36325;51.512;-0.382;2023-05-07T14:59:37;32.80;99.90
30037;DHT22;36325;51.512;-0.382;2023-05-07T15:02:05;33.30;99.90
30037;DHT22;36325;51.512;-0.382;2023-05-07T15:04:36;33.80;99.90
30037;DHT22;36325;51.512;-0.382;2023-05-07T15:07:05;32.70;99.90
30037;DHT22;36325;51.512;-0.382;2023-05-07T15:09:32;31.30;99.90
30037;DHT22;36325;51.512;-0.382;2023-05-07T15:11:59;30.20;99.90
30037;DHT22;36325;51.512;-0.382;2023-05-07T15:14:27;29.20;99.90
30037;DHT22;36325;51.512;-0.382;2023-05-07T15:16:54;28.60;99.90
30037;DHT22;36325;51.512;-0.382;2023-05-07T15:19:21;28.10;99.90
30037;DHT22;36325;51.512;-0.382;2023-05-07T15:21:49;27.50;99.90
30037;DHT22;36325;51.512;-0.382;2023-05-07T15:24:16;28.10;99.90
30037;DHT22;36325;51.512;-0.382;2023-05-07T15:26:43;29.00;99.90
30037;DHT22;36325;51.512;-0.382;2023-05-07T15:29:10;29.60;99.90
30037;DHT22;36325;51.512;-0.382;2023-05-07T15:31:37;29.40;99.90
30037;DHT22;36325;51.512;-0.382;2023-05-07T15:34:06;28.80;99.90
30037;DHT22;36325;51.512;-0.382;2023-05-07T15:36:33;28.60;99.90
30037;DHT22;36325;51.512;-0.382;2023-05-07T15:39:01;29.30;99.90
30037;DHT22;36325;51.512;-0.382;2023-05-07T15:41:30;29.70;99.90
30037;DHT22;36325;51.512;-0.382;2023-05-07T15:43:57;30.90;99.90
30037;DHT22;36325;51.512;-0.382;2023-05-07T15:46:25;30.90;99.90
30037;DHT22;36325;51.512;-0.382;2023-05-07T15:48:53;31.70;99.90
30037;DHT22;36325;51.512;-0.382;2023-05-07T15:51:21;32.50;99.90
30037;DHT22;36325;51.512;-0.382;2023-05-07T15:53:49;33.20;99.90
30037;DHT22;36325;51.512;-0.382;2023-05-07T15:56:17;33.80;99.90
30037;DHT22;36325;51.512;-0.382;2023-05-07T15:58:45;34.20;99.90
30037;DHT22;36325;51.512;-0.382;2023-05-07T16:01:12;34.60;99.90
30037;DHT22;36325;51.512;-0.382;2023-05-07T16:03:40;34.70;99.90
30037;DHT22;36325;51.512;-0.382;2023-05-07T16:06:08;34.70;99.90
30037;DHT22;36325;51.512;-0.382;2023-05-07T16:08:38;34.30;99.90
30037;DHT22;36325;51.512;-0.382;2023-05-07T16:11:06;33.90;99.90